Time;durP1;ratioP1;P1;durP2;ratioP2;P2;SDS_P1;SDS_P2;PMS_P1;PMS_P2;Temp;Humidity;BMP_temperature;BMP_pressure;BME280_temperature;BME280_humidity;BME280_pressure;Samples;Min_cycle;Max_cycle;Signal;HPM_P1;HPM_P2
2023/12/07 00:01:15;;;;;;;156.83;54.70;;;1.70;1.00;;;;;;5073173;28;20296;-79
2023/12/07 00:03:40;;;;;;;139.67;57.13;;;1.80;1.00;;;;;;5073051;28;20523;-79
2023/12/07 00:06:06;;;;;;;158.57;60.00;;;1.80;1.00;;;;;;5072251;28;20170;-78
2023/12/07 00:08:32;;;;;;;151.97;58.57;;;1.90;1.00;;;;;;5072497;28;20202;-79
2023/12/07 00:10:57;;;;;;;150.17;58.13;;;1.90;1.00;;;;;;5070155;28;20235;-78
2023/12/07 00:13:23;;;;;;;164.90;63.77;;;1.90;1.00;;;;;;5072841;28;20168;-80
2023/12/07 00:15:49;;;;;;;170.03;59.37;;;1.90;1.00;;;;;;5071744;28;20204;-78
2023/12/07 00:18:15;;;;;;;155.53;60.43;;;1.90;1.00;;;;;;5072797;28;20220;-79
2023/12/07 00:20:40;;;;;;;175.90;67.17;;;1.90;1.00;;;;;;5073077;28;20170;-79
2023/12/07 00:23:06;;;;;;;150.63;59.13;;;1.90;1.00;;;;;;5070345;28;20178;-78
2023/12/07 00:25:32;;;;;;;165.90;56.27;;;1.90;1.00;;;;;;5070756;28;20194;-77
2023/12/07 00:27:57;;;;;;;159.87;56.97;;;1.80;1.00;;;;;;5072263;28;20202;-78
2023/12/07 00:30:23;;;;;;;180.20;58.97;;;1.70;1.00;;;;;;5071300;28;20233;-78
2023/12/07 00:32:49;;;;;;;179.07;58.37;;;1.70;1.00;;;;;;5074926;28;20219;-77
2023/12/07 00:35:16;;;;;;;154.40;61.90;;;1.70;1.00;;;;;;5073452;28;20163;-79
2023/12/07 00:37:41;;;;;;;174.73;61.37;;;1.70;1.00;;;;;;5071916;28;20190;-79
2023/12/07 00:40:07;;;;;;;160.03;60.33;;;1.80;1.00;;;;;;5076405;28;20400;-79
2023/12/07 00:42:34;;;;;;;187.23;60.70;;;1.70;1.00;;;;;;5076772;28;20158;-80
2023/12/07 00:45:00;;;;;;;167.93;55.27;;;1.80;1.00;;;;;;5075278;28;20400;-79
2023/12/07 00:47:26;;;;;;;172.83;58.57;;;1.80;1.00;;;;;;5072065;28;20530;-78
2023/12/07 00:49:51;;;;;;;198.80;61.73;;;1.90;1.00;;;;;;5056270;28;20402;-80
2023/12/07 00:52:17;;;;;;;164.47;57.97;;;1.90;1.00;;;;;;5056442;28;20167;-77
2023/12/07 00:54:44;;;;;;;169.33;61.23;;;1.90;1.00;;;;;;5055557;28;20159;-79
2023/12/07 00:57:09;;;;;;;186.67;60.67;;;1.90;1.00;;;;;;5056078;28;20938;-79
2023/12/07 00:59:36;;;;;;;189.73;59.60;;;1.80;1.00;;;;;;5056282;28;20397;-78
2023/12/07 01:02:03;;;;;;;179.63;57.97;;;1.90;1.00;;;;;;5055146;28;20397;-78
2023/12/07 01:04:29;;;;;;;180.60;63.30;;;1.90;1.00;;;;;;5066179;28;20813;-81
2023/12/07 01:06:55;;;;;;;183.17;60.80;;;1.90;1.00;;;;;;5035152;28;20516;-79
2023/12/07 01:09:21;;;;;;;155.10;56.20;;;1.90;1.00;;;;;;5034844;28;20497;-77
2023/12/07 01:11:47;;;;;;;168.67;54.93;;;1.80;1.00;;;;;;5036219;28;20884;-78
2023/12/07 01:14:13;;;;;;;149.70;59.37;;;1.90;1.00;;;;;;5034616;28;20505;-78
2023/12/07 01:16:39;;;;;;;158.83;56.87;;;1.90;1.00;;;;;;5034927;28;20827;-78
2023/12/07 01:19:05;;;;;;;151.00;57.23;;;1.90;1.00;;;;;;5068896;28;20166;-79
2023/12/07 01:21:30;;;;;;;157.97;59.37;;;1.90;1.00;;;;;;5074945;28;20177;-78
2023/12/07 01:23:58;;;;;;;143.73;55.73;;;1.90;1.00;;;;;;5074838;28;20250;-78
2023/12/07 01:26:24;;;;;;;147.67;57.37;;;2.00;1.00;;;;;;5057522;28;20540;-80
2023/12/07 01:28:49;;;;;;;155.33;51.63;;;2.00;1.00;;;;;;5055356;28;20445;-78
2023/12/07 01:31:16;;;;;;;141.87;55.47;;;2.00;1.00;;;;;;5067579;28;20921;-80
2023/12/07 01:33:45;;;;;;;168.83;54.87;;;2.00;1.00;;;;;;5075543;28;20245;-80
2023/12/07 01:36:11;;;;;;;152.70;55.83;;;2.00;1.00;;;;;;5073963;28;20408;-78
2023/12/07 01:38:37;;;;;;;162.17;56.00;;;2.00;1.00;;;;;;5075450;28;20420;-78
2023/12/07 01:41:03;;;;;;;144.60;55.33;;;2.00;1.00;;;;;;5074120;28;20404;-80
2023/12/07 01:43:28;;;;;;;157.77;54.30;;;2.00;1.00;;;;;;5071284;28;20718;-78
2023/12/07 01:45:57;;;;;;;166.00;54.73;;;2.00;1.00;;;;;;5074507;28;20415;-80
2023/12/07 01:48:24;;;;;;;167.90;58.80;;;2.00;1.00;;;;;;5072159;28;20209;-80
2023/12/07 01:50:50;;;;;;;165.93;52.13;;;2.00;1.00;;;;;;5055255;28;20437;-79
2023/12/07 01:53:16;;;;;;;166.93;55.57;;;2.10;1.00;;;;;;5054000;28;20494;-79
2023/12/07 01:55:43;;;;;;;152.97;50.27;;;2.00;1.00;;;;;;5052998;28;20410;-78
2023/12/07 01:58:10;;;;;;;168.57;52.40;;;2.00;1.00;;;;;;5054361;28;20512;-78
2023/12/07 02:00:35;;;;;;;187.67;53.63;;;1.90;1.00;;;;;;5064870;28;20822;-78
2023/12/07 02:03:04;;;;;;;182.93;54.43;;;1.70;1.00;;;;;;5075036;28;20512;-78
2023/12/07 02:05:32;;;;;;;204.87;54.70;;;1.70;1.00;;;;;;5074184;28;20158;-79
2023/12/07 02:07:58;;;;;;;170.10;56.93;;;1.70;1.00;;;;;;5074917;28;20444;-80
2023/12/07 02:10:25;;;;;;;198.57;57.47;;;1.50;1.00;;;;;;5073882;28;20731;-80
2023/12/07 02:12:52;;;;;;;181.70;56.07;;;1.60;1.00;;;;;;5074802;28;20393;-78
2023/12/07 02:15:19;;;;;;;213.67;51.50;;;1.70;1.00;;;;;;5070452;28;20477;-80
2023/12/07 02:18:23;;;;;;;178.77;55.13;;;1.70;1.00;;;;;;5071635;28;20460;-79
2023/12/07 02:20:54;;;;;;;162.93;52.67;;;1.70;1.00;;;;;;5068539;28;20432;-79
2023/12/07 02:23:22;;;;;;;167.67;50.30;;;1.70;1.00;;;;;;5053367;28;21039;-79
2023/12/07 02:25:55;;;;;;;169.83;50.20;;;1.70;1.00;;;;;;5053645;28;20932;-79
2023/12/07 02:28:21;;;;;;;170.83;52.60;;;1.60;1.00;;;;;;5062499;28;20999;-79
2023/12/07 02:30:46;;;;;;;178.23;53.50;;;1.60;1.00;;;;;;5074844;28;20388;-79
2023/12/07 02:33:12;;;;;;;154.63;50.37;;;1.70;1.00;;;;;;5073190;28;20651;-79
2023/12/07 02:35:40;;;;;;;149.73;49.20;;;1.70;1.00;;;;;;5071611;28;20276;-80
2023/12/07 02:38:07;;;;;;;171.83;53.33;;;1.60;7.50;;;;;;5067352;28;20876;-79
2023/12/07 02:40:33;;;;;;;145.00;51.60;;;1.50;10.30;;;;;;5074604;28;20517;-79
2023/12/07 02:43:00;;;;;;;141.33;49.67;;;1.50;26.00;;;;;;5074043;28;20432;-79
2023/12/07 02:45:26;;;;;;;159.13;50.30;;;1.50;46.00;;;;;;5069877;28;20770;-79
2023/12/07 02:47:52;;;;;;;167.97;50.20;;;1.50;70.70;;;;;;5074135;28;20451;-79
2023/12/07 02:50:18;;;;;;;189.07;51.87;;;1.50;75.00;;;;;;5073253;28;20413;-79
2023/12/07 02:52:44;;;;;;;151.20;47.80;;;1.50;94.10;;;;;;5052664;28;20414;-79
2023/12/07 02:55:10;;;;;;;192.70;54.47;;;1.50;99.90;;;;;;5051128;28;20171;-79
2023/12/07 02:57:35;;;;;;;179.13;50.90;;;1.60;99.90;;;;;;5053994;28;20721;-79
2023/12/07 03:00:06;;;;;;;155.50;47.87;;;1.60;99.90;;;;;;5057908;28;20432;-79
2023/12/07 03:02:36;;;;;;;233.63;51.47;;;1.70;99.90;;;;;;5068094;28;20175;-79
2023/12/07 03:05:01;;;;;;;215.50;48.53;;;1.80;99.90;;;;;;5053096;28;20401;-79
2023/12/07 03:07:27;;;;;;;230.07;48.90;;;1.80;99.90;;;;;;5053723;28;20611;-79
2023/12/07 03:09:53;;;;;;;182.03;48.17;;;1.80;99.90;;;;;;5043706;28;20409;-79
2023/12/07 03:12:18;;;;;;;133.80;48.37;;;1.80;99.90;;;;;;5032236;28;20620;-80
2023/12/07 03:14:44;;;;;;;158.20;48.83;;;1.80;99.90;;;;;;5032678;28;20518;-80
2023/12/07 03:17:10;;;;;;;128.93;47.40;;;1.80;99.90;;;;;;5035190;28;20560;-78
2023/12/07 03:19:39;;;;;;;154.93;48.30;;;1.80;99.90;;;;;;5071309;28;20178;-80
2023/12/07 03:22:06;;;;;;;169.70;51.43;;;1.80;99.90;;;;;;5073392;28;20177;-78
2023/12/07 03:24:33;;;;;;;168.60;46.23;;;1.80;99.90;;;;;;5070310;28;20478;-80
2023/12/07 03:26:59;;;;;;;156.37;48.63;;;1.90;99.90;;;;;;5072776;28;20523;-79
2023/12/07 03:29:25;;;;;;;150.77;47.03;;;1.90;99.90;;;;;;5053053;28;20488;-79
2023/12/07 03:31:50;;;;;;;169.03;48.17;;;1.80;99.90;;;;;;5052649;28;20198;-79
2023/12/07 03:34:16;;;;;;;133.43;48.67;;;1.70;99.90;;;;;;5052425;28;20658;-79
2023/12/07 03:36:51;;;;;;;173.77;49.77;;;1.70;99.90;;;;;;5049248;28;20175;-79
2023/12/07 03:39:25;;;;;;;140.87;43.40;;;1.80;99.90;;;;;;5053306;28;20538;-79
2023/12/07 03:41:51;;;;;;;149.23;47.50;;;1.70;99.90;;;;;;5053302;28;20397;-79
2023/12/07 03:44:17;;;;;;;167.73;47.47;;;1.70;99.90;;;;;;5054994;28;20459;-81
2023/12/07 03:46:43;;;;;;;140.27;45.43;;;1.70;99.90;;;;;;5071771;28;20440;-79
2023/12/07 03:49:09;;;;;;;151.50;46.20;;;1.70;99.90;;;;;;5072589;28;20243;-79
2023/12/07 03:51:36;;;;;;;151.43;44.70;;;1.70;99.90;;;;;;5072126;28;20253;-79
2023/12/07 03:54:03;;;;;;;133.60;44.07;;;1.80;99.90;;;;;;5073317;28;20404;-79
2023/12/07 03:56:30;;;;;;;153.20;46.07;;;1.90;99.90;;;;;;5072766;28;20400;-79
2023/12/07 03:58:56;;;;;;;136.37;46.67;;;1.90;99.90;;;;;;5059516;28;20913;-79
2023/12/07 04:01:27;;;;;;;131.97;45.73;;;1.90;99.90;;;;;;5062122;28;20428;-79
2023/12/07 04:03:54;;;;;;;129.33;46.47;;;1.90;99.90;;;;;;5073060;28;20408;-79
2023/12/07 04:06:21;;;;;;;142.03;49.57;;;1.80;99.90;;;;;;5070309;28;20503;-79
2023/12/07 04:08:47;;;;;;;132.87;46.20;;;1.80;99.90;;;;;;5076721;28;20459;-79
2023/12/07 04:11:13;;;;;;;169.00;46.27;;;1.80;99.90;;;;;;5077286;28;20404;-79
2023/12/07 04:13:39;;;;;;;122.53;48.27;;;1.80;99.90;;;;;;5077191;28;20166;-79
2023/12/07 04:16:05;;;;;;;144.87;50.00;;;1.80;99.90;;;;;;5060583;28;20429;-79
2023/12/07 04:18:31;;;;;;;125.40;44.43;;;1.80;99.90;;;;;;5056878;28;20429;-79
2023/12/07 04:20:57;;;;;;;134.83;43.37;;;1.80;99.90;;;;;;5055771;28;20921;-79
2023/12/07 04:23:22;;;;;;;131.90;47.00;;;1.80;99.90;;;;;;5066212;28;20178;-79
2023/12/07 04:25:48;;;;;;;138.63;51.03;;;1.80;99.90;;;;;;5074543;28;20538;-79
2023/12/07 04:28:14;;;;;;;110.10;47.80;;;1.90;99.90;;;;;;5076514;28;20210;-79
2023/12/07 04:30:39;;;;;;;151.80;47.80;;;1.90;99.90;;;;;;5077150;28;20229;-79
2023/12/07 04:33:05;;;;;;;131.23;46.23;;;1.90;99.90;;;;;;5077030;28;20190;-79
2023/12/07 04:35:31;;;;;;;137.30;47.90;;;1.90;99.90;;;;;;5075979;28;20163;-79
2023/12/07 04:37:57;;;;;;;134.80;50.83;;;1.90;99.90;;;;;;5074388;28;20260;-79
2023/12/07 04:40:24;;;;;;;140.50;46.07;;;1.90;99.90;;;;;;5069499;28;20183;-79
2023/12/07 04:42:50;;;;;;;143.10;47.80;;;1.90;99.90;;;;;;5076109;28;20177;-79
2023/12/07 04:45:16;;;;;;;122.80;44.77;;;1.90;99.90;;;;;;5074505;28;20457;-79
2023/12/07 04:47:41;;;;;;;136.80;45.73;;;1.90;99.90;;;;;;5076360;28;20542;-78
2023/12/07 04:50:08;;;;;;;146.90;47.23;;;1.80;99.90;;;;;;5076373;28;20196;-80
2023/12/07 04:52:33;;;;;;;138.37;46.70;;;1.80;99.90;;;;;;5076077;28;20694;-79
2023/12/07 04:54:59;;;;;;;152.90;48.47;;;1.90;99.90;;;;;;5062989;28;20508;-80
2023/12/07 04:57:25;;;;;;;117.83;46.77;;;1.90;99.90;;;;;;5056021;28;20198;-79
2023/12/07 04:59:51;;;;;;;165.17;44.80;;;1.90;99.90;;;;;;5055565;28;20774;-79
2023/12/07 05:02:17;;;;;;;148.97;47.63;;;1.80;99.90;;;;;;5056294;28;20175;-79
2023/12/07 05:04:44;;;;;;;112.53;44.50;;;1.80;99.90;;;;;;5054246;28;20309;-80
2023/12/07 05:07:13;;;;;;;135.30;47.17;;;1.90;99.90;;;;;;5036068;28;20441;-79
2023/12/07 05:09:40;;;;;;;135.40;48.67;;;1.90;99.90;;;;;;5034698;28;20414;-79
2023/12/07 05:12:06;;;;;;;119.67;46.00;;;2.00;99.90;;;;;;5043872;28;20724;-80
2023/12/07 05:14:32;;;;;;;109.40;45.50;;;1.90;99.90;;;;;;5054107;28;20464;-82
2023/12/07 05:16:58;;;;;;;122.90;44.17;;;1.90;99.90;;;;;;5055458;28;20409;-80
2023/12/07 05:19:25;;;;;;;126.20;45.20;;;2.00;99.90;;;;;;5053824;28;20409;-80
2023/12/07 05:21:51;;;;;;;120.77;45.50;;;2.00;99.90;;;;;;5070185;28;20401;-79
2023/12/07 05:24:17;;;;;;;143.77;47.53;;;2.00;99.90;;;;;;5075458;28;20444;-80
2023/12/07 05:26:46;;;;;;;107.80;47.03;;;2.10;99.90;;;;;;5072621;28;20467;-80
2023/12/07 05:29:12;;;;;;;128.60;46.90;;;2.10;99.90;;;;;;5075772;28;20817;-79
2023/12/07 05:31:38;;;;;;;134.70;43.70;;;2.10;99.90;;;;;;5070683;28;20428;-79
2023/12/07 05:34:05;;;;;;;117.10;43.13;;;2.10;99.90;;;;;;5075067;28;20404;-79
2023/12/07 05:36:31;;;;;;;124.00;46.50;;;2.10;99.90;;;;;;5063007;28;20421;-80
2023/12/07 05:38:57;;;;;;;131.80;45.83;;;2.10;99.90;;;;;;5066806;28;20429;-79
2023/12/07 05:41:23;;;;;;;132.30;46.17;;;2.10;99.90;;;;;;5075797;28;20392;-79
2023/12/07 05:43:48;;;;;;;106.10;45.37;;;2.10;99.90;;;;;;5067888;28;20947;-80
2023/12/07 05:46:15;;;;;;;128.53;47.50;;;2.10;99.90;;;;;;5073586;28;20209;-79
2023/12/07 05:48:41;;;;;;;112.90;48.33;;;2.10;99.90;;;;;;5075357;28;20194;-80
2023/12/07 05:51:18;;;;;;;142.67;46.70;;;2.00;99.90;;;;;;5075284;28;20393;-80
2023/12/07 05:53:44;;;;;;;124.03;47.10;;;2.10;99.90;;;;;;5073523;28;20424;-79
2023/12/07 05:56:11;;;;;;;129.43;47.80;;;2.00;99.90;;;;;;5074451;28;20401;-80
2023/12/07 05:58:36;;;;;;;125.20;46.70;;;1.90;99.90;;;;;;5067502;28;20447;-76
2023/12/07 06:01:02;;;;;;;132.80;48.70;;;2.00;99.90;;;;;;5071955;28;20458;-76
2023/12/07 06:03:29;;;;;;;126.30;48.53;;;2.00;99.90;;;;;;5075003;28;20163;-77
2023/12/07 06:05:55;;;;;;;141.37;46.70;;;2.00;99.90;;;;;;5072896;28;20465;-77
2023/12/07 06:08:21;;;;;;;113.87;45.97;;;2.00;99.90;;;;;;5074578;28;20480;-80
2023/12/07 06:10:47;;;;;;;134.23;47.43;;;2.10;99.90;;;;;;5074293;28;20440;-80
2023/12/07 06:13:13;;;;;;;136.83;52.47;;;2.10;99.90;;;;;;5073335;28;20467;-79
2023/12/07 06:15:39;;;;;;;114.37;44.03;;;2.10;99.90;;;;;;5071322;28;20478;-80
2023/12/07 06:18:05;;;;;;;126.27;44.77;;;2.10;99.90;;;;;;5055362;28;20539;-80
2023/12/07 06:20:31;;;;;;;125.30;44.93;;;1.90;99.90;;;;;;5066995;28;20526;-79
2023/12/07 06:22:57;;;;;;;131.60;42.47;;;1.90;99.90;;;;;;5068171;28;20213;-79
2023/12/07 06:25:23;;;;;;;111.90;42.87;;;1.80;99.90;;;;;;5052391;28;20925;-80
2023/12/07 06:27:49;;;;;;;123.90;45.43;;;1.80;99.90;;;;;;5055049;28;20822;-80
2023/12/07 06:30:15;;;;;;;135.03;46.47;;;1.80;99.90;;;;;;5053870;28;20455;-79
2023/12/07 06:32:41;;;;;;;123.93;45.27;;;1.80;99.90;;;;;;5054388;28;20397;-79
2023/12/07 06:35:07;;;;;;;121.20;43.80;;;1.90;99.90;;;;;;5055428;28;20428;-79
2023/12/07 06:37:33;;;;;;;160.07;47.40;;;2.00;99.90;;;;;;5072222;28;20200;-79
2023/12/07 06:40:00;;;;;;;122.10;44.70;;;2.00;99.90;;;;;;5067082;28;20523;-79
2023/12/07 06:42:26;;;;;;;128.33;46.47;;;2.00;99.90;;;;;;5061376;28;20178;-79
2023/12/07 06:44:52;;;;;;;142.80;44.07;;;2.00;99.90;;;;;;5058757;28;20526;-79
2023/12/07 06:47:18;;;;;;;154.40;43.87;;;2.00;99.90;;;;;;5059316;28;20809;-79
2023/12/07 06:49:44;;;;;;;141.73;47.70;;;2.00;99.90;;;;;;5069855;28;20428;-80
2023/12/07 06:52:11;;;;;;;151.07;46.23;;;1.90;99.90;;;;;;5070699;28;20416;-78
2023/12/07 06:54:37;;;;;;;134.23;47.30;;;2.00;99.90;;;;;;5073325;28;20397;-79
2023/12/07 06:57:03;;;;;;;127.30;45.03;;;1.90;99.90;;;;;;5061291;28;20429;-79
2023/12/07 06:59:28;;;;;;;113.83;49.37;;;2.00;99.90;;;;;;5053928;28;20393;-79
2023/12/07 07:01:54;;;;;;;134.73;48.47;;;2.00;99.90;;;;;;5053613;28;20402;-78
2023/12/07 07:04:20;;;;;;;126.03;42.90;;;1.90;99.90;;;;;;5053552;28;20173;-79
2023/12/07 07:06:46;;;;;;;131.00;47.57;;;1.90;99.90;;;;;;5053206;28;20413;-78
2023/12/07 07:09:12;;;;;;;136.87;45.37;;;1.90;99.90;;;;;;5053567;28;20193;-79
2023/12/07 07:11:38;;;;;;;142.97;46.80;;;2.00;99.90;;;;;;5052968;28;20190;-79
2023/12/07 07:14:04;;;;;;;140.60;44.40;;;2.00;99.90;;;;;;5036012;28;20822;-79
2023/12/07 07:16:30;;;;;;;149.70;47.40;;;1.90;99.90;;;;;;5033004;28;20399;-79
2023/12/07 07:18:56;;;;;;;128.97;45.40;;;1.80;99.90;;;;;;5033222;28;20394;-79
2023/12/07 07:21:22;;;;;;;136.90;44.13;;;1.90;99.90;;;;;;5033285;28;20464;-79
2023/12/07 07:23:48;;;;;;;158.33;46.70;;;1.90;99.90;;;;;;5033834;28;20171;-79
2023/12/07 07:26:16;;;;;;;128.93;45.80;;;1.80;99.90;;;;;;5033175;28;20903;-79
2023/12/07 07:28:43;;;;;;;128.97;43.40;;;1.90;99.90;;;;;;5032010;28;20575;-79
2023/12/07 07:31:08;;;;;;;202.63;45.30;;;2.00;99.90;;;;;;5032471;28;20810;-79
2023/12/07 07:33:34;;;;;;;169.33;45.07;;;2.00;99.90;;;;;;5033512;28;20410;-79
2023/12/07 07:36:00;;;;;;;143.20;46.67;;;2.00;99.90;;;;;;5032815;28;20656;-79
2023/12/07 07:38:26;;;;;;;150.37;44.57;;;2.10;99.90;;;;;;5032924;28;20191;-79
2023/12/07 07:40:51;;;;;;;168.37;43.07;;;2.00;99.90;;;;;;5031979;28;20180;-79
2023/12/07 07:43:17;;;;;;;159.13;47.73;;;2.10;99.90;;;;;;5032943;28;20573;-79
2023/12/07 07:45:43;;;;;;;114.50;44.27;;;2.10;99.90;;;;;;5031459;28;20171;-78
2023/12/07 07:48:09;;;;;;;111.20;43.50;;;2.10;99.90;;;;;;5032985;28;20461;-79
2023/12/07 07:50:36;;;;;;;135.63;44.50;;;2.10;99.90;;;;;;5033515;28;20431;-78
2023/12/07 07:53:03;;;;;;;102.17;42.23;;;2.10;99.90;;;;;;5031736;28;20402;-79
2023/12/07 07:55:29;;;;;;;149.40;45.60;;;2.10;99.90;;;;;;5032501;28;20406;-79
2023/12/07 07:57:55;;;;;;;125.07;45.20;;;2.10;99.90;;;;;;5031486;28;20777;-79
2023/12/07 08:00:21;;;;;;;128.13;44.83;;;2.10;99.90;;;;;;5033279;28;20460;-79
2023/12/07 08:02:47;;;;;;;112.03;46.30;;;2.10;99.90;;;;;;5039393;28;20624;-79
2023/12/07 08:05:12;;;;;;;98.23;42.77;;;2.10;99.90;;;;;;5051014;28;20405;-79
2023/12/07 08:07:40;;;;;;;127.60;44.83;;;2.10;99.90;;;;;;5052717;28;20944;-78
2023/12/07 08:10:06;;;;;;;119.47;45.67;;;2.10;99.90;;;;;;5052662;28;20213;-78
2023/12/07 08:12:33;;;;;;;131.77;43.63;;;2.10;99.90;;;;;;5053207;28;20393;-78
2023/12/07 08:14:59;;;;;;;175.43;50.60;;;2.10;99.90;;;;;;5051966;28;20444;-79
2023/12/07 08:17:26;;;;;;;97.20;42.50;;;2.00;99.90;;;;;;5052721;28;20421;-79
2023/12/07 08:19:52;;;;;;;132.70;43.07;;;1.90;99.90;;;;;;5052988;28;20540;-79
2023/12/07 08:22:18;;;;;;;110.90;39.57;;;2.00;99.90;;;;;;5051748;28;20467;-78
2023/12/07 08:24:43;;;;;;;104.53;42.17;;;2.00;99.90;;;;;;5051958;28;20429;-79
2023/12/07 08:27:09;;;;;;;123.63;41.47;;;1.90;99.90;;;;;;5049848;28;20191;-78
2023/12/07 08:29:36;;;;;;;126.17;42.13;;;1.80;99.90;;;;;;5057422;28;20170;-78
2023/12/07 08:32:02;;;;;;;134.40;43.00;;;1.70;99.90;;;;;;5071286;28;20159;-78
2023/12/07 08:34:29;;;;;;;122.97;40.80;;;1.70;99.90;;;;;;5072454;28;20408;-79
2023/12/07 08:36:55;;;;;;;147.53;43.40;;;1.70;99.90;;;;;;5072273;28;20427;-78
2023/12/07 08:39:21;;;;;;;125.17;44.90;;;1.60;99.90;;;;;;5061383;28;20433;-78
2023/12/07 08:41:46;;;;;;;137.27;51.33;;;1.60;99.90;;;;;;5051728;28;20249;-78
2023/12/07 08:44:12;;;;;;;125.10;41.67;;;1.70;99.90;;;;;;5071057;28;20182;-78
2023/12/07 08:46:38;;;;;;;120.00;44.10;;;1.70;99.90;;;;;;5067347;28;20193;-79
2023/12/07 08:49:04;;;;;;;130.73;41.70;;;1.70;99.90;;;;;;5052208;28;20210;-78
2023/12/07 08:51:29;;;;;;;116.33;42.17;;;1.70;99.90;;;;;;5052185;28;20171;-78
2023/12/07 08:53:56;;;;;;;137.73;43.20;;;1.70;99.90;;;;;;5052895;28;20193;-78
2023/12/07 08:56:21;;;;;;;141.03;43.00;;;1.70;99.90;;;;;;5049261;28;20440;-78
2023/12/07 08:58:47;;;;;;;166.87;45.20;;;1.70;99.90;;;;;;5039837;28;20440;-79
2023/12/07 09:01:13;;;;;;;133.87;42.27;;;1.70;99.90;;;;;;5054053;28;20571;-78
2023/12/07 09:03:38;;;;;;;122.23;44.70;;;1.70;99.90;;;;;;5053099;28;20181;-78
2023/12/07 09:06:05;;;;;;;135.37;41.40;;;1.70;99.90;;;;;;5055096;28;20174;-78
2023/12/07 09:08:31;;;;;;;126.37;42.93;;;1.70;99.90;;;;;;5054842;28;20207;-78
2023/12/07 09:10:57;;;;;;;115.43;43.67;;;1.70;99.90;;;;;;5055725;28;20462;-78
2023/12/07 09:13:22;;;;;;;108.27;39.03;;;1.80;99.90;;;;;;5049414;28;20207;-79
2023/12/07 09:15:48;;;;;;;127.13;40.60;;;1.70;99.90;;;;;;5035127;28;20160;-78
2023/12/07 09:18:14;;;;;;;130.93;40.00;;;1.80;99.90;;;;;;5034831;28;20298;-78
2023/12/07 09:20:45;;;;;;;117.40;42.07;;;1.80;99.90;;;;;;5038862;28;20179;-78
2023/12/07 09:23:12;;;;;;;152.50;41.40;;;2.00;1.00;;;;;;5055837;28;20167;-78
2023/12/07 09:25:39;;;;;;;144.30;43.40;;;2.00;1.00;;;;;;5055020;28;20425;-77
2023/12/07 09:28:04;;;;;;;113.97;42.63;;;1.90;1.00;;;;;;5055530;28;20477;-78
2023/12/07 09:30:30;;;;;;;115.23;41.97;;;2.00;1.00;;;;;;5049136;28;20914;-78
2023/12/07 09:32:56;;;;;;;124.33;44.43;;;2.10;1.00;;;;;;5035846;28;20529;-78
2023/12/07 09:35:22;;;;;;;91.87;37.43;;;2.00;1.00;;;;;;5035439;28;20206;-78
2023/12/07 09:37:49;;;;;;;120.43;40.60;;;2.10;1.00;;;;;;5035331;28;20199;-77
2023/12/07 09:40:19;;;;;;;113.27;43.10;;;2.10;1.00;;;;;;5042891;28;20167;-74
2023/12/07 09:42:49;;;;;;;114.37;41.33;;;2.10;1.00;;;;;;5055451;28;20404;-68
2023/12/07 09:45:19;;;;;;;118.07;40.10;;;2.30;1.00;;;;;;5054668;28;20398;-70
2023/12/07 09:47:52;;;;;;;123.23;36.53;;;2.30;1.00;;;;;;5047227;28;20508;-68
2023/12/07 09:50:22;;;;;;;127.23;41.47;;;2.30;1.00;;;;;;5035075;28;20465;-73
2023/12/07 09:52:49;;;;;;;107.83;40.63;;;2.30;1.00;;;;;;5034964;28;20401;-71
2023/12/07 09:55:17;;;;;;;128.27;44.50;;;2.30;1.00;;;;;;5040351;28;20457;-75
2023/12/07 09:57:43;;;;;;;121.10;40.33;;;2.30;1.00;;;;;;5060209;28;20420;-75
2023/12/07 10:00:13;;;;;;;112.47;39.13;;;2.40;1.00;;;;;;5075467;28;20438;-75
2023/12/07 10:02:41;;;;;;;113.23;42.57;;;2.40;1.00;;;;;;5066283;28;20436;-75
2023/12/07 10:05:09;;;;;;;103.53;40.07;;;2.50;1.00;;;;;;5051419;28;21016;-75
2023/12/07 10:07:37;;;;;;;109.33;40.57;;;2.50;1.00;;;;;;5054235;28;20487;-76
2023/12/07 10:10:06;;;;;;;100.80;38.53;;;2.60;1.00;;;;;;5054771;28;20429;-77
2023/12/07 10:12:36;;;;;;;119.40;39.57;;;2.60;99.90;;;;;;5054745;28;20910;-78
2023/12/07 10:15:13;;;;;;;104.93;42.83;;;2.60;99.90;;;;;;5054101;28;20432;-78
2023/12/07 10:17:49;;;;;;;102.80;41.00;;;2.60;99.90;;;;;;5054144;28;20427;-80
2023/12/07 10:20:23;;;;;;;125.77;42.67;;;2.50;99.90;;;;;;5054757;28;20397;-79
2023/12/07 10:23:09;;;;;;;121.83;44.40;;;2.50;99.90;;;;;;5038012;28;21006;-77
2023/12/07 10:25:43;;;;;;;124.90;40.40;;;2.50;99.90;;;;;;5048772;28;20436;-78
2023/12/07 10:28:11;;;;;;;105.23;38.93;;;2.50;99.90;;;;;;5032426;28;20513;-79
2023/12/07 10:30:39;;;;;;;124.57;42.20;;;2.50;99.90;;;;;;5033066;28;20830;-78
2023/12/07 10:33:08;;;;;;;108.37;39.20;;;2.50;99.90;;;;;;5043769;28;20424;-77
2023/12/07 10:35:39;;;;;;;133.63;42.03;;;2.50;99.90;;;;;;5062692;28;20458;-77
2023/12/07 10:38:05;;;;;;;98.53;39.53;;;2.50;99.90;;;;;;5060684;28;20526;-78
2023/12/07 10:40:30;;;;;;;114.80;42.37;;;2.30;99.90;;;;;;5060855;28;20460;-79
2023/12/07 10:42:58;;;;;;;110.97;40.13;;;2.40;99.90;;;;;;5052411;28;20186;-78
2023/12/07 10:45:29;;;;;;;130.77;39.13;;;2.50;99.90;;;;;;5054789;28;20232;-78
2023/12/07 10:48:02;;;;;;;135.03;43.50;;;2.50;99.90;;;;;;5055684;28;20454;-78
2023/12/07 10:50:32;;;;;;;126.40;38.67;;;2.50;99.90;;;;;;5066670;28;20435;-78
2023/12/07 10:53:03;;;;;;;108.33;41.87;;;2.50;99.90;;;;;;5071098;28;20424;-78
2023/12/07 10:55:35;;;;;;;110.07;41.07;;;2.50;99.90;;;;;;5067985;28;20425;-78
2023/12/07 10:58:01;;;;;;;124.93;41.90;;;2.50;99.90;;;;;;5059073;28;20445;-78
2023/12/07 11:00:28;;;;;;;98.40;40.50;;;2.50;99.90;;;;;;5066866;28;20425;-78
2023/12/07 11:02:55;;;;;;;121.03;39.97;;;2.50;99.90;;;;;;5066592;28;20436;-78
2023/12/07 11:05:21;;;;;;;109.63;38.37;;;2.50;99.90;;;;;;5050979;28;20447;-78
2023/12/07 11:08:28;;;;;;;103.83;39.27;;;2.50;99.90;;;;;;5058991;28;20544;-75
2023/12/07 11:10:54;;;;;;;92.83;36.80;;;2.50;99.90;;;;;;5059542;28;20840;-76
2023/12/07 11:13:28;;;;;;;169.90;39.17;;;2.50;99.90;;;;;;5057182;28;20463;-78
2023/12/07 11:15:55;;;;;;;129.40;39.03;;;2.50;99.90;;;;;;5064936;28;20523;-75
2023/12/07 11:18:20;;;;;;;143.00;38.47;;;2.50;99.90;;;;;;5070721;28;20452;-75
2023/12/07 11:20:47;;;;;;;114.43;37.70;;;2.50;99.90;;;;;;5068804;28;20433;-75
2023/12/07 11:23:18;;;;;;;118.93;39.23;;;2.60;99.90;;;;;;5070716;28;20188;-74
2023/12/07 11:25:45;;;;;;;110.13;38.70;;;2.60;99.90;;;;;;5070361;28;20456;-74
2023/12/07 11:28:12;;;;;;;111.70;42.20;;;2.70;99.90;;;;;;5056906;28;20508;-75
2023/12/07 11:30:40;;;;;;;116.57;40.00;;;2.70;99.90;;;;;;5052732;28;20423;-76
2023/12/07 11:33:06;;;;;;;125.47;40.23;;;2.70;99.90;;;;;;5063308;28;20432;-75
2023/12/07 11:35:33;;;;;;;107.37;36.93;;;2.70;99.90;;;;;;5041303;28;20428;-75
2023/12/07 11:38:11;;;;;;;110.93;39.80;;;2.70;99.90;;;;;;5070324;28;20454;-75
2023/12/07 11:40:42;;;;;;;120.67;41.07;;;2.70;99.90;;;;;;5062530;28;20423;-75
2023/12/07 11:43:16;;;;;;;116.17;39.93;;;2.70;99.90;;;;;;5060026;28;20433;-74
2023/12/07 11:45:49;;;;;;;116.73;42.53;;;2.60;99.90;;;;;;5069814;28;20424;-74
2023/12/07 11:48:17;;;;;;;110.93;41.30;;;2.60;99.90;;;;;;5056466;28;20460;-74
2023/12/07 11:51:10;;;;;;;102.40;38.63;;;2.60;99.90;;;;;;5070898;28;20936;-75
2023/12/07 11:53:38;;;;;;;85.37;36.37;;;2.60;99.90;;;;;;5071559;28;20481;-75
2023/12/07 11:56:05;;;;;;;110.30;40.83;;;2.70;99.90;;;;;;5066906;28;20435;-74
2023/12/07 11:58:33;;;;;;;103.33;39.80;;;2.60;99.90;;;;;;5053091;28;20414;-74
2023/12/07 12:01:00;;;;;;;108.50;38.37;;;2.60;99.90;;;;;;5051511;28;20436;-75
2023/12/07 12:03:27;;;;;;;96.17;38.60;;;2.70;99.90;;;;;;5050035;28;20426;-75
2023/12/07 12:05:52;;;;;;;93.50;39.27;;;2.70;99.90;;;;;;5051094;28;20428;-74
2023/12/07 12:08:19;;;;;;;100.20;40.53;;;2.80;99.90;;;;;;5052673;28;20479;-75
2023/12/07 12:10:46;;;;;;;92.80;39.00;;;2.70;99.90;;;;;;5052849;28;20389;-74
2023/12/07 12:13:12;;;;;;;112.87;39.60;;;2.60;99.90;;;;;;5052720;28;20463;-74
2023/12/07 12:15:42;;;;;;;99.47;39.83;;;2.60;99.90;;;;;;5052014;28;20886;-74
2023/12/07 12:18:08;;;;;;;105.80;42.67;;;2.60;99.90;;;;;;5052655;28;20964;-74
2023/12/07 12:20:34;;;;;;;95.63;41.67;;;2.60;99.90;;;;;;5045380;28;20415;-74
2023/12/07 12:23:01;;;;;;;111.33;40.47;;;2.70;99.90;;;;;;5034594;28;20964;-75
2023/12/07 12:25:30;;;;;;;116.70;41.60;;;2.70;99.90;;;;;;5051631;28;20527;-74
2023/12/07 12:28:06;;;;;;;113.03;41.70;;;2.80;99.90;;;;;;5052408;28;20462;-74
2023/12/07 12:30:33;;;;;;;111.10;41.50;;;2.80;99.90;;;;;;5056711;28;20484;-74